Time;durP1;ratioP1;P1;durP2;ratioP2;P2;SDS_P1;SDS_P2;PMS_P1;PMS_P2;Temp;Humidity;BMP_temperature;BMP_pressure;BME280_temperature;BME280_humidity;BME280_pressure;Samples;Min_cycle;Max_cycle;Signal;HPM_P1;HPM_P2
2022/03/03 00:00:10;;;;;;;2.33;1.40;;;;;;;;;;4984475;28;20019;-78
2022/03/03 00:02:36;;;;;;;1.65;1.55;;;;;;;;;;4983672;28;20038;-76
2022/03/03 00:05:03;;;;;;;2.40;1.83;;;;;;;;;;4974624;28;20055;-77
2022/03/03 00:07:29;;;;;;;1.67;1.58;;;;;;;;;;4988036;28;20022;-77
2022/03/03 00:09:55;;;;;;;1.63;1.50;;;;;;;;;;4974389;28;20027;-77
2022/03/03 00:12:22;;;;;;;5.40;1.75;;;;;;;;;;4972857;28;20070;-78
2022/03/03 00:14:48;;;;;;;2.92;1.60;;;;;;;;;;4965207;28;20024;-78
2022/03/03 00:17:14;;;;;;;3.85;1.60;;;;;;;;;;4962028;29;20029;-79
2022/03/03 00:19:44;;;;;;;4.47;2.47;;;;;;;;;;4955827;29;20027;-80
2022/03/03 00:22:11;;;;;;;1.70;1.60;;;;;;;;;;4968995;28;20489;-76
2022/03/03 00:24:37;;;;;;;6.05;1.95;;;;;;;;;;4958704;28;20023;-76
2022/03/03 00:27:03;;;;;;;2.42;1.95;;;;;;;;;;4977913;28;20030;-78
2022/03/03 00:29:29;;;;;;;5.72;2.30;;;;;;;;;;4977980;28;20027;-78
2022/03/03 00:31:56;;;;;;;4.03;1.80;;;;;;;;;;4971126;28;20031;-78
2022/03/03 00:34:22;;;;;;;5.10;2.33;;;;;;;;;;4984076;28;20102;-77
2022/03/03 00:36:48;;;;;;;2.28;1.80;;;;;;;;;;4973128;28;20061;-77
2022/03/03 00:39:14;;;;;;;3.72;2.00;;;;;;;;;;4983593;28;20038;-78
2022/03/03 00:41:40;;;;;;;2.60;1.70;;;;;;;;;;4979550;28;20401;-77
2022/03/03 00:44:06;;;;;;;1.90;1.65;;;;;;;;;;4982832;28;20027;-78
2022/03/03 00:46:35;;;;;;;2.40;1.70;;;;;;;;;;4988629;28;20362;-77
2022/03/03 00:49:01;;;;;;;3.70;1.98;;;;;;;;;;4982968;28;20030;-78
2022/03/03 00:51:28;;;;;;;3.00;1.73;;;;;;;;;;4974547;28;20031;-77
2022/03/03 00:53:56;;;;;;;2.53;1.90;;;;;;;;;;4986563;28;20058;-78
2022/03/03 00:56:22;;;;;;;2.97;2.15;;;;;;;;;;4986906;28;20122;-78
2022/03/03 00:58:49;;;;;;;5.30;2.00;;;;;;;;;;4990574;28;20027;-78
2022/03/03 01:01:15;;;;;;;4.43;1.90;;;;;;;;;;4980608;28;20086;-79
2022/03/03 01:03:41;;;;;;;4.03;1.75;;;;;;;;;;4969176;28;20030;-79
2022/03/03 01:06:09;;;;;;;3.72;1.70;;;;;;;;;;4976425;28;20063;-78
2022/03/03 01:08:35;;;;;;;9.18;2.75;;;;;;;;;;4982209;28;20031;-79
2022/03/03 01:11:01;;;;;;;5.28;2.20;;;;;;;;;;4986024;28;20045;-78
2022/03/03 01:13:27;;;;;;;5.80;2.40;;;;;;;;;;4983755;28;20035;-78
2022/03/03 01:15:54;;;;;;;3.08;1.98;;;;;;;;;;4974717;28;20031;-79
2022/03/03 01:18:20;;;;;;;4.63;2.10;;;;;;;;;;4996281;28;20107;-77
2022/03/03 01:20:47;;;;;;;4.25;1.77;;;;;;;;;;4985364;28;20035;-78
2022/03/03 01:23:13;;;;;;;4.18;2.22;;;;;;;;;;4988012;28;20030;-78
2022/03/03 01:25:39;;;;;;;3.28;2.15;;;;;;;;;;4998754;28;20023;-77
2022/03/03 01:28:05;;;;;;;2.80;2.20;;;;;;;;;;4992310;28;20030;-77
2022/03/03 01:30:32;;;;;;;6.35;2.10;;;;;;;;;;4982994;28;20035;-77
2022/03/03 01:32:58;;;;;;;2.80;2.08;;;;;;;;;;4985998;28;20026;-77
2022/03/03 01:35:24;;;;;;;4.57;2.00;;;;;;;;;;4990059;28;20037;-78
2022/03/03 01:37:50;;;;;;;6.65;2.30;;;;;;;;;;4990665;28;20547;-78
2022/03/03 01:40:16;;;;;;;4.10;1.90;;;;;;;;;;4986192;28;20038;-81
2022/03/03 01:42:42;;;;;;;4.68;2.10;;;;;;;;;;4982566;28;20035;-79
2022/03/03 01:45:09;;;;;;;2.60;1.80;;;;;;;;;;4983289;28;20027;-78
2022/03/03 01:47:35;;;;;;;3.83;2.20;;;;;;;;;;4978649;28;20023;-77
2022/03/03 01:50:02;;;;;;;3.47;2.30;;;;;;;;;;4985581;28;20141;-78
2022/03/03 01:52:28;;;;;;;6.85;2.20;;;;;;;;;;4978268;28;20028;-77
2022/03/03 01:54:54;;;;;;;5.60;2.13;;;;;;;;;;4969952;28;20081;-78
2022/03/03 01:57:21;;;;;;;2.35;1.90;;;;;;;;;;4973612;28;20023;-76
2022/03/03 01:59:47;;;;;;;6.00;2.05;;;;;;;;;;4989556;28;20019;-76
2022/03/03 02:02:13;;;;;;;5.20;2.20;;;;;;;;;;4984723;28;20027;-78
2022/03/03 02:04:40;;;;;;;2.70;2.05;;;;;;;;;;4982258;28;20145;-78
2022/03/03 02:07:10;;;;;;;6.28;2.47;;;;;;;;;;4980348;28;20026;-78
2022/03/03 02:09:37;;;;;;;5.85;2.40;;;;;;;;;;4979518;28;20026;-78
2022/03/03 02:12:04;;;;;;;3.13;2.15;;;;;;;;;;4982491;28;20100;-79
2022/03/03 02:14:30;;;;;;;4.28;1.98;;;;;;;;;;4985602;28;20481;-78
2022/03/03 02:16:56;;;;;;;7.30;2.78;;;;;;;;;;4969861;28;20042;-77
2022/03/03 02:19:22;;;;;;;6.45;2.53;;;;;;;;;;4988141;28;20031;-75
2022/03/03 02:21:49;;;;;;;8.60;2.72;;;;;;;;;;4979853;28;20031;-79
2022/03/03 02:24:16;;;;;;;2.78;1.90;;;;;;;;;;4989592;28;20031;-79
2022/03/03 02:26:42;;;;;;;5.68;3.05;;;;;;;;;;4991478;28;20073;-79
2022/03/03 02:29:08;;;;;;;3.38;2.30;;;;;;;;;;4971447;28;20031;-79
2022/03/03 02:31:34;;;;;;;3.97;2.10;;;;;;;;;;4989445;28;20029;-81
2022/03/03 02:34:01;;;;;;;6.38;2.33;;;;;;;;;;4987297;28;20031;-80
2022/03/03 02:36:27;;;;;;;8.50;3.08;;;;;;;;;;4987285;28;20034;-78
2022/03/03 02:38:55;;;;;;;11.05;2.67;;;;;;;;;;4983686;28;20114;-78
2022/03/03 02:41:21;;;;;;;10.07;2.80;;;;;;;;;;4987764;28;20049;-79
2022/03/03 02:43:47;;;;;;;8.98;2.85;;;;;;;;;;4984347;28;20485;-80
2022/03/03 02:46:13;;;;;;;6.20;2.03;;;;;;;;;;4991357;28;20388;-78
2022/03/03 02:48:40;;;;;;;7.35;2.13;;;;;;;;;;4973670;28;20034;-78
2022/03/03 02:51:07;;;;;;;5.43;2.03;;;;;;;;;;4973999;28;20086;-80
2022/03/03 02:53:33;;;;;;;7.72;2.67;;;;;;;;;;4983952;28;20031;-81
2022/03/03 02:55:59;;;;;;;6.45;2.63;;;;;;;;;;4982227;28;20037;-78
2022/03/03 02:58:25;;;;;;;7.63;2.30;;;;;;;;;;4983905;28;20026;-78
2022/03/03 03:00:52;;;;;;;8.25;3.20;;;;;;;;;;4989053;28;20031;-78
2022/03/03 03:03:18;;;;;;;4.82;2.10;;;;;;;;;;4985539;28;20019;-78
2022/03/03 03:05:45;;;;;;;8.98;2.60;;;;;;;;;;4987199;28;20098;-79
2022/03/03 03:08:11;;;;;;;7.20;2.13;;;;;;;;;;4987413;28;20035;-78
2022/03/03 03:10:38;;;;;;;4.65;2.08;;;;;;;;;;4983316;28;20028;-80
2022/03/03 03:13:05;;;;;;;6.93;2.60;;;;;;;;;;4966245;28;20434;-78
2022/03/03 03:15:31;;;;;;;8.40;2.35;;;;;;;;;;4981067;28;20034;-78
2022/03/03 03:18:08;;;;;;;5.32;2.20;;;;;;;;;;4981423;28;20035;-78
2022/03/03 03:20:34;;;;;;;13.20;2.90;;;;;;;;;;4988038;28;20026;-78
2022/03/03 03:23:01;;;;;;;5.57;3.40;;;;;;;;;;4986715;28;20027;-78
2022/03/03 03:25:27;;;;;;;7.88;2.10;;;;;;;;;;4983728;28;20023;-79
2022/03/03 03:27:53;;;;;;;7.75;3.60;;;;;;;;;;4986607;28;20105;-79
2022/03/03 03:30:19;;;;;;;7.70;2.92;;;;;;;;;;4980465;28;20015;-77
2022/03/03 03:32:45;;;;;;;7.45;2.47;;;;;;;;;;4976974;28;20485;-78
2022/03/03 03:35:12;;;;;;;7.13;2.90;;;;;;;;;;4987279;28;20050;-78
2022/03/03 03:37:38;;;;;;;5.35;2.60;;;;;;;;;;4986412;28;20031;-78
2022/03/03 03:40:05;;;;;;;9.85;2.85;;;;;;;;;;4988928;28;20073;-77
2022/03/03 03:42:31;;;;;;;4.82;2.30;;;;;;;;;;4989753;28;20047;-79
2022/03/03 03:44:57;;;;;;;4.20;2.50;;;;;;;;;;5002045;28;20377;-81
2022/03/03 03:47:23;;;;;;;9.82;2.30;;;;;;;;;;4986119;28;20026;-79
2022/03/03 03:49:49;;;;;;;10.23;2.55;;;;;;;;;;4986281;28;20082;-79
2022/03/03 03:52:15;;;;;;;4.75;2.53;;;;;;;;;;4985722;28;20034;-79
2022/03/03 03:54:41;;;;;;;9.80;2.83;;;;;;;;;;4985991;28;20037;-78
2022/03/03 03:57:07;;;;;;;5.93;2.35;;;;;;;;;;4973315;28;20015;-79
2022/03/03 03:59:33;;;;;;;8.50;2.50;;;;;;;;;;4985537;28;20075;-78
2022/03/03 04:01:59;;;;;;;4.32;2.53;;;;;;;;;;4996089;28;20123;-77
2022/03/03 04:04:25;;;;;;;8.65;2.78;;;;;;;;;;4994043;28;20493;-78
2022/03/03 04:06:51;;;;;;;7.40;2.42;;;;;;;;;;4986372;28;20445;-78
2022/03/03 04:09:18;;;;;;;8.75;2.80;;;;;;;;;;4988208;28;20038;-77
2022/03/03 04:11:44;;;;;;;6.35;3.40;;;;;;;;;;4996076;28;20026;-76
2022/03/03 04:14:10;;;;;;;6.43;2.33;;;;;;;;;;4996906;28;20027;-77
2022/03/03 04:16:36;;;;;;;4.97;1.95;;;;;;;;;;4992065;28;20086;-78
2022/03/03 04:19:02;;;;;;;5.82;2.42;;;;;;;;;;4987602;28;20031;-79
2022/03/03 04:21:31;;;;;;;8.50;3.42;;;;;;;;;;4986140;28;20034;-78
2022/03/03 04:23:57;;;;;;;10.68;3.13;;;;;;;;;;4971864;28;20027;-78
2022/03/03 04:26:23;;;;;;;9.77;2.65;;;;;;;;;;4989218;28;20078;-77
2022/03/03 04:28:49;;;;;;;15.23;4.28;;;;;;;;;;4982315;28;20032;-78
2022/03/03 04:31:15;;;;;;;10.48;2.90;;;;;;;;;;4989250;28;20035;-77
2022/03/03 04:33:42;;;;;;;10.60;2.47;;;;;;;;;;4990369;28;20026;-77
2022/03/03 04:36:09;;;;;;;8.27;2.50;;;;;;;;;;4990337;28;20046;-78
2022/03/03 04:38:35;;;;;;;14.70;2.83;;;;;;;;;;4982910;28;20027;-78
2022/03/03 04:41:01;;;;;;;7.80;2.92;;;;;;;;;;4988615;28;20489;-78
2022/03/03 04:43:27;;;;;;;10.85;2.30;;;;;;;;;;4987681;28;20027;-78
2022/03/03 04:45:53;;;;;;;8.30;2.42;;;;;;;;;;4982996;28;20026;-77
2022/03/03 04:48:19;;;;;;;9.23;2.50;;;;;;;;;;4985987;28;20073;-79
2022/03/03 04:50:45;;;;;;;7.93;2.78;;;;;;;;;;4987538;28;20058;-77
2022/03/03 04:53:11;;;;;;;9.07;2.35;;;;;;;;;;4984082;28;20031;-77
2022/03/03 04:55:37;;;;;;;9.98;3.42;;;;;;;;;;4975290;28;20026;-78
2022/03/03 04:58:03;;;;;;;14.05;3.28;;;;;;;;;;4990934;28;20058;-79
2022/03/03 05:00:29;;;;;;;15.80;2.63;;;;;;;;;;4984737;28;20131;-79
2022/03/03 05:02:56;;;;;;;7.20;2.70;;;;;;;;;;4989004;28;20038;-78
2022/03/03 05:05:22;;;;;;;9.18;3.22;;;;;;;;;;4980426;28;20103;-78
2022/03/03 05:07:48;;;;;;;17.35;3.00;;;;;;;;;;4997120;28;20060;-78
2022/03/03 05:10:14;;;;;;;7.90;2.60;;;;;;;;;;4992133;28;20106;-78
2022/03/03 05:12:40;;;;;;;8.68;2.08;;;;;;;;;;4980666;28;20034;-77
2022/03/03 05:15:07;;;;;;;6.57;2.58;;;;;;;;;;4989735;28;20026;-77
2022/03/03 05:17:33;;;;;;;10.20;2.65;;;;;;;;;;4999079;28;20026;-76
2022/03/03 05:19:59;;;;;;;6.03;2.35;;;;;;;;;;4982397;28;20037;-76
2022/03/03 05:22:25;;;;;;;12.60;3.35;;;;;;;;;;4976299;28;20035;-77
2022/03/03 05:24:53;;;;;;;7.57;2.88;;;;;;;;;;4986173;28;20050;-77
2022/03/03 05:27:19;;;;;;;8.60;2.92;;;;;;;;;;4985877;28;20050;-76
2022/03/03 05:29:45;;;;;;;13.00;2.70;;;;;;;;;;4986729;28;20027;-78
2022/03/03 05:32:11;;;;;;;7.63;2.90;;;;;;;;;;4983261;28;20038;-78
2022/03/03 05:34:38;;;;;;;12.50;3.08;;;;;;;;;;4987017;28;20042;-78
2022/03/03 05:37:05;;;;;;;8.85;2.90;;;;;;;;;;4986802;28;20467;-78
2022/03/03 05:39:32;;;;;;;12.73;2.70;;;;;;;;;;4969784;28;20027;-78
2022/03/03 05:41:58;;;;;;;8.32;2.60;;;;;;;;;;4967609;29;20027;-78
2022/03/03 05:44:24;;;;;;;9.77;2.97;;;;;;;;;;4967456;29;20074;-77
2022/03/03 05:46:51;;;;;;;9.05;2.53;;;;;;;;;;4968022;29;20047;-77
2022/03/03 05:49:20;;;;;;;12.60;3.63;;;;;;;;;;4967346;29;20380;-76
2022/03/03 05:51:46;;;;;;;8.20;2.70;;;;;;;;;;4966232;29;20560;-77
2022/03/03 05:54:13;;;;;;;11.10;3.38;;;;;;;;;;4967228;29;20073;-77
2022/03/03 05:56:39;;;;;;;6.10;2.63;;;;;;;;;;4971403;28;20026;-77
2022/03/03 05:59:12;;;;;;;11.85;3.75;;;;;;;;;;4955705;29;20031;-77
2022/03/03 06:01:40;;;;;;;9.68;2.92;;;;;;;;;;4964307;28;20022;-78
2022/03/03 06:04:13;;;;;;;10.55;3.15;;;;;;;;;;4963554;28;20024;-79
2022/03/03 06:06:43;;;;;;;7.05;2.30;;;;;;;;;;4970261;29;20030;-77
2022/03/03 06:09:15;;;;;;;13.02;2.70;;;;;;;;;;4963683;29;20054;-77
2022/03/03 06:12:02;;;;;;;13.65;3.33;;;;;;;;;;4971386;29;20039;-78
2022/03/03 06:14:36;;;;;;;16.17;3.33;;;;;;;;;;4966612;28;20028;-78
2022/03/03 06:17:03;;;;;;;9.18;3.78;;;;;;;;;;4969789;29;20031;-76
2022/03/03 06:19:29;;;;;;;12.57;3.20;;;;;;;;;;4971188;29;20391;-76
2022/03/03 06:21:56;;;;;;;9.27;3.35;;;;;;;;;;4970603;29;20046;-77
2022/03/03 06:24:22;;;;;;;10.27;2.65;;;;;;;;;;4969469;29;20042;-76
2022/03/03 06:26:48;;;;;;;10.15;2.80;;;;;;;;;;4964836;29;20054;-78
2022/03/03 06:29:15;;;;;;;6.18;2.53;;;;;;;;;;4970004;29;20038;-78
2022/03/03 06:31:41;;;;;;;7.78;3.17;;;;;;;;;;4969826;29;20063;-78
2022/03/03 06:34:07;;;;;;;7.13;2.70;;;;;;;;;;4970479;29;20023;-76
2022/03/03 06:36:33;;;;;;;4.30;2.47;;;;;;;;;;4976248;28;20031;-78
2022/03/03 06:38:59;;;;;;;8.48;2.78;;;;;;;;;;4968156;29;20055;-76
2022/03/03 06:41:26;;;;;;;11.02;2.85;;;;;;;;;;4990703;28;20039;-78
2022/03/03 06:43:52;;;;;;;14.50;3.70;;;;;;;;;;4989386;28;20049;-78
2022/03/03 06:46:18;;;;;;;11.73;3.42;;;;;;;;;;4990113;28;20030;-77
2022/03/03 06:48:45;;;;;;;10.23;3.20;;;;;;;;;;4990171;28;20087;-78
2022/03/03 06:51:13;;;;;;;8.10;2.90;;;;;;;;;;4991001;28;20401;-78
2022/03/03 06:53:41;;;;;;;20.10;4.20;;;;;;;;;;4993573;28;20029;-78
2022/03/03 06:56:08;;;;;;;9.32;4.13;;;;;;;;;;4988876;28;20031;-78
2022/03/03 06:58:35;;;;;;;7.32;2.55;;;;;;;;;;4983465;28;20062;-78
2022/03/03 07:01:05;;;;;;;10.77;3.15;;;;;;;;;;4989987;28;20042;-78
2022/03/03 07:03:32;;;;;;;10.75;2.80;;;;;;;;;;4991109;28;20026;-77
2022/03/03 07:05:58;;;;;;;8.75;3.05;;;;;;;;;;4989879;28;20014;-75
2022/03/03 07:08:24;;;;;;;9.80;3.55;;;;;;;;;;4990036;28;20054;-76
2022/03/03 07:10:50;;;;;;;11.52;3.15;;;;;;;;;;4988171;28;20030;-78
2022/03/03 07:13:17;;;;;;;10.98;4.03;;;;;;;;;;4989561;28;20453;-75
2022/03/03 07:15:49;;;;;;;14.90;3.50;;;;;;;;;;4989485;28;20114;-78
2022/03/03 07:18:20;;;;;;;14.57;3.10;;;;;;;;;;4981973;28;20027;-76
2022/03/03 07:20:52;;;;;;;11.57;3.33;;;;;;;;;;4998656;28;20035;-77
2022/03/03 07:23:25;;;;;;;15.23;3.13;;;;;;;;;;4988822;28;20038;-77
2022/03/03 07:25:54;;;;;;;7.97;3.15;;;;;;;;;;4974624;28;20037;-78
2022/03/03 07:28:20;;;;;;;18.15;9.35;;;;;;;;;;4974388;28;20070;-77
2022/03/03 07:30:49;;;;;;;11.57;2.90;;;;;;;;;;4955281;28;20416;-78
2022/03/03 07:33:18;;;;;;;6.20;2.85;;;;;;;;;;4970640;28;20031;-78
2022/03/03 07:35:46;;;;;;;7.97;3.58;;;;;;;;;;4970489;28;20035;-78
2022/03/03 07:38:19;;;;;;;9.48;2.75;;;;;;;;;;4972415;28;20058;-79
2022/03/03 07:40:45;;;;;;;10.43;2.50;;;;;;;;;;4968425;28;20035;-78
2022/03/03 07:43:12;;;;;;;8.85;3.35;;;;;;;;;;4965028;28;20055;-80
2022/03/03 07:45:39;;;;;;;8.73;3.30;;;;;;;;;;4962479;29;20024;-77
2022/03/03 07:48:06;;;;;;;12.45;3.22;;;;;;;;;;4956220;29;20038;-78
2022/03/03 07:50:32;;;;;;;15.90;3.13;;;;;;;;;;4955233;28;20114;-78
2022/03/03 07:52:58;;;;;;;9.32;2.47;;;;;;;;;;4951265;28;20027;-78
2022/03/03 07:55:24;;;;;;;11.80;3.50;;;;;;;;;;4958629;28;20031;-77
2022/03/03 07:57:58;;;;;;;15.00;3.97;;;;;;;;;;4954782;29;20031;-77
2022/03/03 08:00:26;;;;;;;10.93;2.70;;;;;;;;;;4959476;29;20520;-78
2022/03/03 08:02:53;;;;;;;12.15;3.55;;;;;;;;;;4962403;28;20868;-78
2022/03/03 08:05:20;;;;;;;15.23;3.47;;;;;;;;;;4959351;28;20035;-78
2022/03/03 08:07:48;;;;;;;13.52;3.50;;;;;;;;;;4959869;29;20131;-79
2022/03/03 08:10:15;;;;;;;8.27;2.90;;;;;;;;;;4961248;29;20416;-79
2022/03/03 08:12:42;;;;;;;8.18;3.25;;;;;;;;;;4963748;28;20042;-78
2022/03/03 08:15:09;;;;;;;14.15;3.42;;;;;;;;;;4967587;28;20071;-78
2022/03/03 08:17:36;;;;;;;8.10;3.03;;;;;;;;;;4962115;28;20023;-80
2022/03/03 08:20:04;;;;;;;11.43;2.85;;;;;;;;;;4962676;29;20046;-79
2022/03/03 08:22:30;;;;;;;11.77;2.83;;;;;;;;;;4962650;28;20027;-78
2022/03/03 08:24:57;;;;;;;10.80;2.88;;;;;;;;;;4962380;28;20078;-78
2022/03/03 08:27:24;;;;;;;8.85;2.58;;;;;;;;;;4958235;29;20023;-79
2022/03/03 08:29:51;;;;;;;9.65;3.22;;;;;;;;;;4958128;29;20023;-79
2022/03/03 08:32:19;;;;;;;10.48;3.05;;;;;;;;;;4960518;28;20050;-79
2022/03/03 08:34:46;;;;;;;14.45;2.65;;;;;;;;;;4938559;29;20076;-78
2022/03/03 08:37:32;;;;;;;12.80;3.65;;;;;;;;;;4963131;29;20035;-79
2022/03/03 08:40:00;;;;;;;9.95;3.33;;;;;;;;;;4952109;29;20513;-80
2022/03/03 08:42:29;;;;;;;10.20;3.50;;;;;;;;;;4965873;28;20035;-79
2022/03/03 08:44:57;;;;;;;18.30;4.10;;;;;;;;;;4965052;29;20039;-80
2022/03/03 08:47:24;;;;;;;14.55;4.43;;;;;;;;;;4964364;29;20516;-81
2022/03/03 08:49:56;;;;;;;11.25;2.63;;;;;;;;;;4947399;29;20023;-79
2022/03/03 08:52:23;;;;;;;10.18;2.83;;;;;;;;;;4969204;29;20030;-79
2022/03/03 08:54:49;;;;;;;11.07;2.85;;;;;;;;;;4963346;29;20019;-79
2022/03/03 08:57:15;;;;;;;21.52;4.05;;;;;;;;;;4967389;28;20103;-79
2022/03/03 08:59:41;;;;;;;11.30;2.97;;;;;;;;;;4959617;28;20066;-79
2022/03/03 09:02:07;;;;;;;10.27;3.50;;;;;;;;;;4960959;28;20031;-78
2022/03/03 09:04:33;;;;;;;12.45;3.67;;;;;;;;;;4957241;28;20063;-80
2022/03/03 09:06:59;;;;;;;9.85;2.90;;;;;;;;;;4958531;28;20035;-79
2022/03/03 09:09:26;;;;;;;10.65;4.10;;;;;;;;;;4959886;28;20509;-78
2022/03/03 09:11:52;;;;;;;12.45;3.17;;;;;;;;;;4958245;28;20039;-79
2022/03/03 09:14:18;;;;;;;8.15;4.00;;;;;;;;;;4957879;28;20449;-78
2022/03/03 09:16:45;;;;;;;13.80;3.20;;;;;;;;;;4958445;28;20034;-78
2022/03/03 09:19:11;;;;;;;20.00;3.35;;;;;;;;;;4959969;28;20477;-78
2022/03/03 09:21:37;;;;;;;14.20;3.03;;;;;;;;;;4961860;29;20054;-79
2022/03/03 09:24:03;;;;;;;8.45;2.92;;;;;;;;;;4960093;29;20031;-78
2022/03/03 09:26:29;;;;;;;8.35;2.58;;;;;;;;;;4958524;28;20050;-78
2022/03/03 09:28:55;;;;;;;9.35;3.33;;;;;;;;;;4956521;28;20027;-78
2022/03/03 09:31:22;;;;;;;14.07;3.47;;;;;;;;;;4959153;28;20071;-77
2022/03/03 09:33:48;;;;;;;12.05;5.22;;;;;;;;;;4955014;28;20027;-79
2022/03/03 09:36:14;;;;;;;10.38;3.38;;;;;;;;;;4949471;28;20031;-80
2022/03/03 09:38:40;;;;;;;13.07;3.05;;;;;;;;;;4948984;28;20041;-79
2022/03/03 09:41:06;;;;;;;9.98;3.92;;;;;;;;;;4969882;28;20043;-80
2022/03/03 09:43:34;;;;;;;11.68;2.95;;;;;;;;;;4958738;28;20023;-80
2022/03/03 09:46:00;;;;;;;9.88;3.38;;;;;;;;;;4955707;28;20027;-79
2022/03/03 09:48:27;;;;;;;7.18;2.83;;;;;;;;;;4965813;28;20038;-80
2022/03/03 09:50:53;;;;;;;12.55;3.80;;;;;;;;;;4965478;29;20039;-79
2022/03/03 09:53:19;;;;;;;14.23;2.90;;;;;;;;;;4964219;29;20038;-80
2022/03/03 09:55:46;;;;;;;13.93;3.05;;;;;;;;;;4962087;29;20062;-79
2022/03/03 09:58:12;;;;;;;8.30;3.30;;;;;;;;;;4965445;29;20028;-79
2022/03/03 10:00:40;;;;;;;8.90;3.10;;;;;;;;;;4965563;29;20023;-80
2022/03/03 10:03:09;;;;;;;12.73;3.50;;;;;;;;;;4971906;28;20087;-80
2022/03/03 10:05:37;;;;;;;14.52;3.45;;;;;;;;;;4967739;29;20019;-80
2022/03/03 10:08:08;;;;;;;10.45;4.60;;;;;;;;;;4967252;29;20035;-78
2022/03/03 10:10:35;;;;;;;7.78;3.05;;;;;;;;;;4968241;28;20037;-79
2022/03/03 10:13:01;;;;;;;19.58;6.13;;;;;;;;;;4966511;28;20039;-80
2022/03/03 10:15:28;;;;;;;10.77;4.00;;;;;;;;;;4964197;28;20083;-79
2022/03/03 10:18:02;;;;;;;14.07;4.50;;;;;;;;;;4960722;28;20037;-78
2022/03/03 10:20:30;;;;;;;10.85;4.75;;;;;;;;;;4973084;28;20032;-79
2022/03/03 10:22:59;;;;;;;12.52;3.80;;;;;;;;;;4963428;28;20038;-78
2022/03/03 10:25:33;;;;;;;10.30;3.92;;;;;;;;;;4961154;28;20031;-78
2022/03/03 10:28:15;;;;;;;13.35;4.18;;;;;;;;;;4945080;28;20027;-78
2022/03/03 10:30:48;;;;;;;7.95;3.20;;;;;;;;;;4960038;28;20046;-80
2022/03/03 10:33:14;;;;;;;9.00;3.30;;;;;;;;;;4962768;28;20028;-78
2022/03/03 10:35:41;;;;;;;11.23;3.97;;;;;;;;;;4976461;28;20031;-78
2022/03/03 10:38:07;;;;;;;13.90;4.47;;;;;;;;;;4962403;28;20035;-79
2022/03/03 10:40:38;;;;;;;11.00;4.15;;;;;;;;;;4966106;28;20066;-79
2022/03/03 10:43:05;;;;;;;13.18;4.18;;;;;;;;;;4969809;28;20023;-80
2022/03/03 10:45:32;;;;;;;8.38;3.75;;;;;;;;;;4968442;28;20016;-77
2022/03/03 10:48:06;;;;;;;8.52;2.67;;;;;;;;;;4975442;29;20035;-81
2022/03/03 10:50:48;;;;;;;10.57;3.72;;;;;;;;;;4972569;29;20099;-81
2022/03/03 10:53:22;;;;;;;10.27;3.10;;;;;;;;;;4971494;29;20122;-81
2022/03/03 10:56:00;;;;;;;8.15;3.47;;;;;;;;;;4980734;28;20035;-81
2022/03/03 10:58:46;;;;;;;9.50;3.10;;;;;;;;;;4979411;28;20035;-77
2022/03/03 11:01:12;;;;;;;10.93;3.60;;;;;;;;;;4973138;28;20031;-80
2022/03/03 11:03:40;;;;;;;11.70;3.72;;;;;;;;;;4979214;28;20027;-78
2022/03/03 11:06:07;;;;;;;10.93;2.88;;;;;;;;;;4975247;28;20058;-80
2022/03/03 11:08:34;;;;;;;10.60;3.33;;;;;;;;;;4977009;29;20031;-81
2022/03/03 11:11:01;;;;;;;9.60;3.50;;;;;;;;;;4976804;28;20079;-80
2022/03/03 11:13:27;;;;;;;9.02;3.05;;;;;;;;;;4977617;28;20033;-80
2022/03/03 11:15:54;;;;;;;9.07;3.13;;;;;;;;;;4982400;28;20039;-81
2022/03/03 11:18:20;;;;;;;7.45;2.50;;;;;;;;;;4974830;28;20023;-80
2022/03/03 11:20:47;;;;;;;7.97;2.92;;;;;;;;;;4971578;28;20019;-81
2022/03/03 11:23:13;;;;;;;12.80;2.92;;;;;;;;;;4968759;28;20421;-79
2022/03/03 11:25:39;;;;;;;9.02;2.45;;;;;;;;;;4958942;28;20058;-80
2022/03/03 11:28:14;;;;;;;11.48;3.20;;;;;;;;;;4955298;28;20055;-78
2022/03/03 11:30:41;;;;;;;8.95;3.72;;;;;;;;;;4945879;28;20166;-78
2022/03/03 11:33:22;;;;;;;10.00;2.78;;;;;;;;;;4951917;28;20061;-77
2022/03/03 11:35:50;;;;;;;9.98;2.55;;;;;;;;;;4956463;28;20046;-77
2022/03/03 11:38:20;;;;;;;10.77;2.60;;;;;;;;;;4950934;28;20042;-79
2022/03/03 11:41:01;;;;;;;11.13;3.30;;;;;;;;;;4953394;28;20066;-78
2022/03/03 11:43:28;;;;;;;7.68;2.60;;;;;;;;;;4940123;29;20027;-79
2022/03/03 11:45:58;;;;;;;11.98;2.95;;;;;;;;;;4949341;29;20016;-79
2022/03/03 11:48:24;;;;;;;10.13;2.60;;;;;;;;;;4954356;29;20031;-79
2022/03/03 11:50:52;;;;;;;7.78;2.75;;;;;;;;;;4954203;28;20039;-79
2022/03/03 11:53:20;;;;;;;5.38;2.22;;;;;;;;;;4964261;29;20042;-79
2022/03/03 11:55:47;;;;;;;9.00;2.80;;;;;;;;;;4956429;28;20024;-78
2022/03/03 11:58:26;;;;;;;7.78;2.38;;;;;;;;;;4953745;28;20031;-79
2022/03/03 12:00:59;;;;;;;11.10;3.13;;;;;;;;;;4957182;28;20418;-78
2022/03/03 12:03:25;;;;;;;8.23;3.70;;;;;;;;;;4955555;28;20023;-78
2022/03/03 12:06:04;;;;;;;5.82;2.40;;;;;;;;;;4949398;28;20478;-79
2022/03/03 12:08:34;;;;;;;9.15;2.70;;;;;;;;;;4957016;28;20382;-79
2022/03/03 12:11:05;;;;;;;7.88;2.50;;;;;;;;;;4955110;28;20027;-79
2022/03/03 12:13:41;;;;;;;4.40;2.00;;;;;;;;;;4959999;28;20046;-79
2022/03/03 12:16:17;;;;;;;7.78;2.53;;;;;;;;;;4960165;29;20023;-78
2022/03/03 12:18:44;;;;;;;5.43;2.67;;;;;;;;;;4964817;29;20043;-78
2022/03/03 12:21:22;;;;;;;7.90;2.70;;;;;;;;;;4969061;28;20027;-79
2022/03/03 12:23:50;;;;;;;6.72;2.25;;;;;;;;;;4967266;29;20082;-83
2022/03/03 12:26:16;;;;;;;6.57;2.50;;;;;;;;;;4956076;28;20034;-87
2022/03/03 12:28:47;;;;;;;7.47;2.50;;;;;;;;;;4951574;28;20038;-86
2022/03/03 12:31:27;;;;;;;8.43;2.85;;;;;;;;;;4951783;28;20062;-88
2022/03/03 12:33:57;;;;;;;6.28;3.00;;;;;;;;;;4954851;29;20121;-87
2022/03/03 12:36:23;;;;;;;7.75;2.20;;;;;;;;;;4951359;29;20041;-82
2022/03/03 12:38:51;;;;;;;8.88;2.47;;;;;;;;;;4952353;28;20046;-82
2022/03/03 12:41:18;;;;;;;7.63;2.67;;;;;;;;;;4957730;28;20122;-82
2022/03/03 12:43:44;;;;;;;5.80;2.60;;;;;;;;;;4956594;28;20082;-81
2022/03/03 12:46:10;;;;;;;9.30;3.17;;;;;;;;;;4952854;28;20031;-82
2022/03/03 12:48:36;;;;;;;5.28;2.30;;;;;;;;;;4953330;28;20027;-83
2022/03/03 12:51:06;;;;;;;9.82;2.67;;;;;;;;;;4950360;28;20422;-82
2022/03/03 12:53:36;;;;;;;5.50;2.20;;;;;;;;;;4955947;28;20496;-81
2022/03/03 12:56:02;;;;;;;4.60;2.50;;;;;;;;;;4954538;28;20085;-81
2022/03/03 12:58:30;;;;;;;7.50;2.40;;;;;;;;;;4954169;28;20041;-81
2022/03/03 13:00:56;;;;;;;5.93;2.53;;;;;;;;;;4960088;28;20031;-78
2022/03/03 13:03:24;;;;;;;11.05;3.88;;;;;;;;;;4952736;28;20077;-82
2022/03/03 13:06:03;;;;;;;8.57;2.92;;;;;;;;;;4949441;28;20517;-82
2022/03/03 13:08:32;;;;;;;6.43;3.00;;;;;;;;;;4946983;28;20485;-80
2022/03/03 13:11:00;;;;;;;7.28;2.60;;;;;;;;;;4951737;28;20030;-82
2022/03/03 13:13:26;;;;;;;4.95;2.65;;;;;;;;;;4955318;28;20481;-79
2022/03/03 13:15:53;;;;;;;7.97;2.65;;;;;;;;;;4959916;28;20046;-77
2022/03/03 13:18:21;;;;;;;9.05;3.60;;;;;;;;;;4950248;28;20035;-79
2022/03/03 13:20:54;;;;;;;8.45;2.75;;;;;;;;;;4955575;28;20069;-83
2022/03/03 13:23:28;;;;;;;7.78;3.03;;;;;;;;;;4954598;28;20051;-82
2022/03/03 13:26:09;;;;;;;5.93;2.40;;;;;;;;;;4958361;28;20031;-80
2022/03/03 13:28:39;;;;;;;6.47;2.30;;;;;;;;;;4952479;28;20023;-82
2022/03/03 13:31:06;;;;;;;6.60;2.67;;;;;;;;;;4950411;28;20584;-82
2022/03/03 13:33:44;;;;;;;5.47;3.00;;;;;;;;;;4951774;28;20027;-81
2022/03/03 13:36:33;;;;;;;5.93;2.35;;;;;;;;;;4951578;28;20027;-83
2022/03/03 13:39:00;;;;;;;6.93;2.85;;;;;;;;;;4936949;28;20039;-83
2022/03/03 13:41:34;;;;;;;7.15;2.28;;;;;;;;;;4965526;28;20758;-80
2022/03/03 13:44:19;;;;;;;4.80;2.37;;;;;;;;;;4970081;28;20038;-81
2022/03/03 13:46:58;;;;;;;6.20;2.10;;;;;;;;;;4968560;28;20281;-79
2022/03/03 13:49:25;;;;;;;6.18;2.50;;;;;;;;;;4971395;28;20062;-80
2022/03/03 13:52:18;;;;;;;3.45;2.00;;;;;;;;;;4950090;28;20474;-80
2022/03/03 13:54:49;;;;;;;2.92;2.00;;;;;;;;;;4941677;28;20050;-80
2022/03/03 13:57:35;;;;;;;6.60;2.30;;;;;;;;;;4972326;28;20053;-81
2022/03/03 14:00:04;;;;;;;6.47;2.83;;;;;;;;;;4970532;28;20031;-81
2022/03/03 14:02:30;;;;;;;4.25;1.92;;;;;;;;;;4972799;28;20054;-82
2022/03/03 14:05:00;;;;;;;4.47;2.83;;;;;;;;;;4974700;28;20533;-81
2022/03/03 14:07:28;;;;;;;8.75;2.38;;;;;;;;;;4968696;28;20035;-83
2022/03/03 14:09:58;;;;;;;7.70;2.60;;;;;;;;;;4968887;28;20029;-81
2022/03/03 14:12:24;;;;;;;7.00;2.60;;;;;;;;;;4974580;28;20107;-79
2022/03/03 14:14:50;;;;;;;8.07;2.70;;;;;;;;;;4972155;28;20049;-79
2022/03/03 14:17:16;;;;;;;6.53;3.15;;;;;;;;;;4971709;28;20038;-79
2022/03/03 14:19:43;;;;;;;5.07;2.15;;;;;;;;;;4972665;28;20029;-78
2022/03/03 14:22:09;;;;;;;7.40;3.65;;;;;;;;;;4976072;28;20086;-79
2022/03/03 14:24:38;;;;;;;8.75;3.05;;;;;;;;;;4981488;28;20035;-80
2022/03/03 14:27:05;;;;;;;4.95;3.05;;;;;;;;;;4974727;28;20480;-81
2022/03/03 14:29:31;;;;;;;4.90;2.25;;;;;;;;;;4984085;28;20481;-80
2022/03/03 14:31:57;;;;;;;4.53;2.30;;;;;;;;;;4977955;28;20480;-79
2022/03/03 14:34:23;;;;;;;8.30;2.83;;;;;;;;;;4976810;28;20042;-80
2022/03/03 14:36:49;;;;;;;4.60;2.10;;;;;;;;;;4974922;28;20031;-80
2022/03/03 14:39:15;;;;;;;4.65;2.20;;;;;;;;;;4973876;28;20037;-79
2022/03/03 14:41:42;;;;;;;5.20;2.60;;;;;;;;;;4958827;28;20055;-80